sensor_id;sensor_type;location;lat;lon;timestamp;P1;durP1;ratioP1;P2;durP2;ratioP2
72127;SDS011;60000;51.030;7.024;2022-07-01T00:01:22;7.17;;;2.67;;
72127;SDS011;60000;51.030;7.024;2022-07-01T00:03:48;7.30;;;2.60;;
72127;SDS011;60000;51.030;7.024;2022-07-01T00:06:19;6.07;;;2.20;;
72127;SDS011;60000;51.030;7.024;2022-07-01T00:08:45;5.95;;;2.60;;
72127;SDS011;60000;51.030;7.024;2022-07-01T00:11:10;6.80;;;2.63;;
72127;SDS011;60000;51.030;7.024;2022-07-01T00:13:36;6.70;;;2.90;;
72127;SDS011;60000;51.030;7.024;2022-07-01T00:16:01;8.07;;;2.63;;
72127;SDS011;60000;51.030;7.024;2022-07-01T00:18:27;6.55;;;2.92;;
72127;SDS011;60000;51.030;7.024;2022-07-01T00:20:53;6.33;;;2.83;;
72127;SDS011;60000;51.030;7.024;2022-07-01T00:23:18;7.50;;;3.03;;
72127;SDS011;60000;51.030;7.024;2022-07-01T00:25:44;7.03;;;3.07;;
72127;SDS011;60000;51.030;7.024;2022-07-01T00:28:09;7.63;;;3.20;;
72127;SDS011;60000;51.030;7.024;2022-07-01T00:30:35;6.93;;;2.83;;
72127;SDS011;60000;51.030;7.024;2022-07-01T00:33:00;8.77;;;3.30;;
72127;SDS011;60000;51.030;7.024;2022-07-01T00:35:25;7.05;;;2.70;;
72127;SDS011;60000;51.030;7.024;2022-07-01T00:37:51;6.17;;;2.43;;
72127;SDS011;60000;51.030;7.024;2022-07-01T00:40:16;6.47;;;2.60;;
72127;SDS011;60000;51.030;7.024;2022-07-01T00:42:41;6.93;;;2.90;;
72127;SDS011;60000;51.030;7.024;2022-07-01T00:45:08;7.03;;;2.90;;
72127;SDS011;60000;51.030;7.024;2022-07-01T00:47:37;7.72;;;3.35;;
72127;SDS011;60000;51.030;7.024;2022-07-01T00:50:08;6.88;;;2.92;;
72127;SDS011;60000;51.030;7.024;2022-07-01T00:52:38;8.33;;;3.50;;
72127;SDS011;60000;51.030;7.024;2022-07-01T00:55:08;7.32;;;3.05;;
72127;SDS011;60000;51.030;7.024;2022-07-01T00:57:36;9.13;;;2.90;;
72127;SDS011;60000;51.030;7.024;2022-07-01T01:00:06;8.23;;;3.53;;
72127;SDS011;60000;51.030;7.024;2022-07-01T01:02:37;8.60;;;3.20;;
72127;SDS011;60000;51.030;7.024;2022-07-01T01:05:03;9.57;;;3.50;;
72127;SDS011;60000;51.030;7.024;2022-07-01T01:07:29;8.93;;;3.50;;
72127;SDS011;60000;51.030;7.024;2022-07-01T01:09:57;8.18;;;3.55;;
72127;SDS011;60000;51.030;7.024;2022-07-01T01:12:27;10.48;;;4.75;;
72127;SDS011;60000;51.030;7.024;2022-07-01T01:14:53;9.75;;;3.92;;
72127;SDS011;60000;51.030;7.024;2022-07-01T01:17:19;9.77;;;4.40;;
72127;SDS011;60000;51.030;7.024;2022-07-01T01:19:47;9.65;;;4.13;;
72127;SDS011;60000;51.030;7.024;2022-07-01T01:22:16;14.18;;;4.63;;
72127;SDS011;60000;51.030;7.024;2022-07-01T01:24:43;14.25;;;5.03;;
72127;SDS011;60000;51.030;7.024;2022-07-01T01:27:09;13.80;;;5.75;;
72127;SDS011;60000;51.030;7.024;2022-07-01T01:29:35;15.43;;;6.17;;
72127;SDS011;60000;51.030;7.024;2022-07-01T01:32:01;13.10;;;5.25;;
72127;SDS011;60000;51.030;7.024;2022-07-01T01:34:31;13.70;;;5.70;;
72127;SDS011;60000;51.030;7.024;2022-07-01T01:37:02;10.50;;;5.07;;
72127;SDS011;60000;51.030;7.024;2022-07-01T01:39:28;11.35;;;4.95;;
72127;SDS011;60000;51.030;7.024;2022-07-01T01:41:53;12.83;;;5.40;;
72127;SDS011;60000;51.030;7.024;2022-07-01T01:44:18;17.60;;;6.47;;
72127;SDS011;60000;51.030;7.024;2022-07-01T01:46:44;13.90;;;6.27;;
72127;SDS011;60000;51.030;7.024;2022-07-01T01:49:09;15.80;;;6.35;;
72127;SDS011;60000;51.030;7.024;2022-07-01T01:51:35;13.38;;;5.78;;
72127;SDS011;60000;51.030;7.024;2022-07-01T01:54:01;14.13;;;5.53;;
72127;SDS011;60000;51.030;7.024;2022-07-01T01:56:27;13.38;;;5.93;;
72127;SDS011;60000;51.030;7.024;2022-07-01T01:58:52;14.00;;;6.30;;
72127;SDS011;60000;51.030;7.024;2022-07-01T02:01:18;11.83;;;5.30;;
72127;SDS011;60000;51.030;7.024;2022-07-01T02:03:44;14.48;;;5.50;;
72127;SDS011;60000;51.030;7.024;2022-07-01T02:06:12;11.60;;;4.60;;
72127;SDS011;60000;51.030;7.024;2022-07-01T02:08:38;11.10;;;5.18;;
72127;SDS011;60000;51.030;7.024;2022-07-01T02:11:04;9.17;;;3.80;;
72127;SDS011;60000;51.030;7.024;2022-07-01T02:13:29;8.15;;;3.60;;
72127;SDS011;60000;51.030;7.024;2022-07-01T02:15:55;7.70;;;3.20;;
72127;SDS011;60000;51.030;7.024;2022-07-01T02:18:21;8.23;;;3.78;;
72127;SDS011;60000;51.030;7.024;2022-07-01T02:20:47;9.27;;;3.97;;
72127;SDS011;60000;51.030;7.024;2022-07-01T02:23:12;8.55;;;3.40;;
72127;SDS011;60000;51.030;7.024;2022-07-01T02:25:38;8.63;;;3.40;;
72127;SDS011;60000;51.030;7.024;2022-07-01T02:28:03;7.93;;;3.23;;
72127;SDS011;60000;51.030;7.024;2022-07-01T02:30:28;13.07;;;3.57;;
72127;SDS011;60000;51.030;7.024;2022-07-01T02:32:55;9.07;;;3.45;;
72127;SDS011;60000;51.030;7.024;2022-07-01T02:35:21;9.02;;;3.55;;
72127;SDS011;60000;51.030;7.024;2022-07-01T02:37:46;8.60;;;3.07;;
72127;SDS011;60000;51.030;7.024;2022-07-01T02:40:12;7.63;;;3.00;;
72127;SDS011;60000;51.030;7.024;2022-07-01T02:42:38;8.52;;;2.92;;
72127;SDS011;60000;51.030;7.024;2022-07-01T02:45:04;8.50;;;3.40;;
72127;SDS011;60000;51.030;7.024;2022-07-01T02:47:34;8.95;;;3.10;;
72127;SDS011;60000;51.030;7.024;2022-07-01T02:50:04;7.80;;;3.20;;
72127;SDS011;60000;51.030;7.024;2022-07-01T02:52:31;7.25;;;2.92;;
72127;SDS011;60000;51.030;7.024;2022-07-01T02:54:59;8.80;;;3.10;;
72127;SDS011;60000;51.030;7.024;2022-07-01T02:57:25;7.15;;;2.72;;
72127;SDS011;60000;51.030;7.024;2022-07-01T02:59:50;6.90;;;2.83;;
72127;SDS011;60000;51.030;7.024;2022-07-01T03:02:16;7.83;;;3.20;;
72127;SDS011;60000;51.030;7.024;2022-07-01T03:04:43;9.48;;;3.08;;
72127;SDS011;60000;51.030;7.024;2022-07-01T03:07:08;9.87;;;3.77;;
72127;SDS011;60000;51.030;7.024;2022-07-01T03:09:34;7.65;;;2.70;;
72127;SDS011;60000;51.030;7.024;2022-07-01T03:12:00;10.43;;;2.33;;
72127;SDS011;60000;51.030;7.024;2022-07-01T03:14:45;8.50;;;2.50;;
72127;SDS011;60000;51.030;7.024;2022-07-01T03:17:10;8.77;;;2.57;;
72127;SDS011;60000;51.030;7.024;2022-07-01T03:19:36;7.87;;;2.70;;
72127;SDS011;60000;51.030;7.024;2022-07-01T03:22:01;6.78;;;2.10;;
72127;SDS011;60000;51.030;7.024;2022-07-01T03:24:26;8.00;;;2.20;;
72127;SDS011;60000;51.030;7.024;2022-07-01T03:26:52;6.63;;;1.93;;
72127;SDS011;60000;51.030;7.024;2022-07-01T03:29:17;6.80;;;2.10;;
72127;SDS011;60000;51.030;7.024;2022-07-01T03:31:42;5.50;;;1.90;;
72127;SDS011;60000;51.030;7.024;2022-07-01T03:34:08;9.03;;;3.30;;
72127;SDS011;60000;51.030;7.024;2022-07-01T03:36:33;7.13;;;2.67;;
72127;SDS011;60000;51.030;7.024;2022-07-01T03:38:58;6.80;;;2.07;;
72127;SDS011;60000;51.030;7.024;2022-07-01T03:41:25;5.25;;;1.83;;
72127;SDS011;60000;51.030;7.024;2022-07-01T03:43:51;5.20;;;1.60;;
72127;SDS011;60000;51.030;7.024;2022-07-01T03:46:16;4.75;;;1.42;;
72127;SDS011;60000;51.030;7.024;2022-07-01T03:48:42;4.70;;;1.50;;
72127;SDS011;60000;51.030;7.024;2022-07-01T03:51:07;6.63;;;1.70;;
72127;SDS011;60000;51.030;7.024;2022-07-01T03:53:35;7.70;;;2.95;;
72127;SDS011;60000;51.030;7.024;2022-07-01T03:56:19;4.90;;;1.70;;
72127;SDS011;60000;51.030;7.024;2022-07-01T03:58:45;6.70;;;1.67;;
72127;SDS011;60000;51.030;7.024;2022-07-01T04:01:10;6.40;;;1.80;;
72127;SDS011;60000;51.030;7.024;2022-07-01T04:03:36;5.63;;;1.70;;
72127;SDS011;60000;51.030;7.024;2022-07-01T04:06:01;5.70;;;1.40;;
72127;SDS011;60000;51.030;7.024;2022-07-01T04:08:26;5.97;;;1.40;;
72127;SDS011;60000;51.030;7.024;2022-07-01T04:10:52;5.07;;;1.40;;
72127;SDS011;60000;51.030;7.024;2022-07-01T04:13:19;6.20;;;1.38;;
72127;SDS011;60000;51.030;7.024;2022-07-01T04:15:46;6.27;;;1.40;;
72127;SDS011;60000;51.030;7.024;2022-07-01T04:18:11;5.53;;;1.90;;
72127;SDS011;60000;51.030;7.024;2022-07-01T04:20:37;7.63;;;2.63;;
72127;SDS011;60000;51.030;7.024;2022-07-01T04:23:02;8.23;;;3.37;;
72127;SDS011;60000;51.030;7.024;2022-07-01T04:25:28;4.63;;;1.40;;
72127;SDS011;60000;51.030;7.024;2022-07-01T04:27:55;5.28;;;1.50;;
72127;SDS011;60000;51.030;7.024;2022-07-01T04:30:21;6.70;;;1.70;;
72127;SDS011;60000;51.030;7.024;2022-07-01T04:32:46;4.03;;;1.33;;
72127;SDS011;60000;51.030;7.024;2022-07-01T04:35:11;7.23;;;1.33;;
72127;SDS011;60000;51.030;7.024;2022-07-01T04:37:39;5.70;;;1.90;;
72127;SDS011;60000;51.030;7.024;2022-07-01T04:40:05;7.03;;;1.52;;
72127;SDS011;60000;51.030;7.024;2022-07-01T04:42:31;5.10;;;1.60;;
72127;SDS011;60000;51.030;7.024;2022-07-01T04:44:58;7.30;;;1.33;;
72127;SDS011;60000;51.030;7.024;2022-07-01T04:47:24;9.17;;;2.17;;
72127;SDS011;60000;51.030;7.024;2022-07-01T04:49:49;4.00;;;1.30;;
72127;SDS011;60000;51.030;7.024;2022-07-01T04:52:14;4.00;;;1.40;;
72127;SDS011;60000;51.030;7.024;2022-07-01T04:54:40;3.80;;;1.20;;
72127;SDS011;60000;51.030;7.024;2022-07-01T04:57:06;5.40;;;1.27;;
72127;SDS011;60000;51.030;7.024;2022-07-01T04:59:31;4.22;;;1.50;;
72127;SDS011;60000;51.030;7.024;2022-07-01T05:01:57;4.93;;;1.40;;
72127;SDS011;60000;51.030;7.024;2022-07-01T05:04:23;6.33;;;1.40;;
72127;SDS011;60000;51.030;7.024;2022-07-01T05:06:49;3.30;;;1.00;;
72127;SDS011;60000;51.030;7.024;2022-07-01T05:09:16;7.68;;;1.42;;
72127;SDS011;60000;51.030;7.024;2022-07-01T05:11:41;6.40;;;1.40;;
72127;SDS011;60000;51.030;7.024;2022-07-01T05:14:07;4.70;;;1.40;;
72127;SDS011;60000;51.030;7.024;2022-07-01T05:16:33;6.80;;;1.40;;
72127;SDS011;60000;51.030;7.024;2022-07-01T05:18:59;6.23;;;1.60;;
72127;SDS011;60000;51.030;7.024;2022-07-01T05:21:44;6.88;;;1.40;;
72127;SDS011;60000;51.030;7.024;2022-07-01T05:24:21;6.53;;;1.45;;
72127;SDS011;60000;51.030;7.024;2022-07-01T05:26:48;5.00;;;1.52;;
72127;SDS011;60000;51.030;7.024;2022-07-01T05:29:13;4.40;;;1.23;;
72127;SDS011;60000;51.030;7.024;2022-07-01T05:31:39;5.45;;;1.20;;
72127;SDS011;60000;51.030;7.024;2022-07-01T05:34:04;3.77;;;1.30;;
72127;SDS011;60000;51.030;7.024;2022-07-01T05:36:31;7.03;;;1.60;;
72127;SDS011;60000;51.030;7.024;2022-07-01T05:38:57;5.23;;;1.83;;
72127;SDS011;60000;51.030;7.024;2022-07-01T05:41:22;6.03;;;1.53;;
72127;SDS011;60000;51.030;7.024;2022-07-01T05:43:48;4.50;;;1.30;;
72127;SDS011;60000;51.030;7.024;2022-07-01T05:46:13;4.57;;;1.40;;
72127;SDS011;60000;51.030;7.024;2022-07-01T05:48:38;5.10;;;1.60;;
72127;SDS011;60000;51.030;7.024;2022-07-01T05:51:04;5.30;;;1.50;;
72127;SDS011;60000;51.030;7.024;2022-07-01T05:53:29;4.93;;;1.60;;
72127;SDS011;60000;51.030;7.024;2022-07-01T05:55:55;5.23;;;1.30;;
72127;SDS011;60000;51.030;7.024;2022-07-01T05:58:20;4.83;;;1.33;;
72127;SDS011;60000;51.030;7.024;2022-07-01T06:00:45;5.17;;;1.20;;
72127;SDS011;60000;51.030;7.024;2022-07-01T06:03:11;5.63;;;1.40;;
72127;SDS011;60000;51.030;7.024;2022-07-01T06:05:37;6.20;;;1.70;;
72127;SDS011;60000;51.030;7.024;2022-07-01T06:08:03;6.20;;;2.10;;
72127;SDS011;60000;51.030;7.024;2022-07-01T06:10:29;4.32;;;1.60;;
72127;SDS011;60000;51.030;7.024;2022-07-01T06:12:54;6.80;;;2.00;;
72127;SDS011;60000;51.030;7.024;2022-07-01T06:15:20;6.13;;;1.73;;
72127;SDS011;60000;51.030;7.024;2022-07-01T06:17:45;8.47;;;1.80;;
72127;SDS011;60000;51.030;7.024;2022-07-01T06:20:11;6.33;;;2.03;;
72127;SDS011;60000;51.030;7.024;2022-07-01T06:22:36;6.65;;;2.10;;
72127;SDS011;60000;51.030;7.024;2022-07-01T06:25:02;5.77;;;2.37;;
72127;SDS011;60000;51.030;7.024;2022-07-01T06:27:28;7.78;;;2.90;;
72127;SDS011;60000;51.030;7.024;2022-07-01T06:29:53;7.80;;;2.20;;
72127;SDS011;60000;51.030;7.024;2022-07-01T06:32:19;8.00;;;2.50;;
72127;SDS011;60000;51.030;7.024;2022-07-01T06:34:45;4.68;;;1.40;;
72127;SDS011;60000;51.030;7.024;2022-07-01T06:37:10;7.07;;;1.95;;
72127;SDS011;60000;51.030;7.024;2022-07-01T06:39:36;6.53;;;2.30;;
72127;SDS011;60000;51.030;7.024;2022-07-01T06:42:02;7.63;;;2.33;;
72127;SDS011;60000;51.030;7.024;2022-07-01T06:44:27;5.80;;;1.95;;
72127;SDS011;60000;51.030;7.024;2022-07-01T06:46:53;5.80;;;2.57;;
72127;SDS011;60000;51.030;7.024;2022-07-01T06:49:18;6.10;;;2.60;;
72127;SDS011;60000;51.030;7.024;2022-07-01T06:51:43;6.53;;;2.50;;
72127;SDS011;60000;51.030;7.024;2022-07-01T06:54:09;6.60;;;2.50;;
72127;SDS011;60000;51.030;7.024;2022-07-01T06:56:34;6.57;;;1.90;;
72127;SDS011;60000;51.030;7.024;2022-07-01T06:58:59;5.90;;;1.73;;
72127;SDS011;60000;51.030;7.024;2022-07-01T07:01:26;5.28;;;2.03;;
72127;SDS011;60000;51.030;7.024;2022-07-01T07:03:51;8.60;;;2.60;;
72127;SDS011;60000;51.030;7.024;2022-07-01T07:06:17;9.17;;;2.40;;
72127;SDS011;60000;51.030;7.024;2022-07-01T07:08:42;7.43;;;2.00;;
72127;SDS011;60000;51.030;7.024;2022-07-01T07:11:07;8.27;;;2.00;;
72127;SDS011;60000;51.030;7.024;2022-07-01T07:13:34;5.05;;;1.58;;
72127;SDS011;60000;51.030;7.024;2022-07-01T07:15:59;5.03;;;1.77;;
72127;SDS011;60000;51.030;7.024;2022-07-01T07:18:25;5.07;;;1.73;;
72127;SDS011;60000;51.030;7.024;2022-07-01T07:20:50;6.30;;;1.83;;
72127;SDS011;60000;51.030;7.024;2022-07-01T07:23:16;8.03;;;2.10;;
72127;SDS011;60000;51.030;7.024;2022-07-01T07:25:41;5.43;;;2.23;;
72127;SDS011;60000;51.030;7.024;2022-07-01T07:28:07;7.13;;;2.47;;
72127;SDS011;60000;51.030;7.024;2022-07-01T07:30:32;8.60;;;2.97;;
72127;SDS011;60000;51.030;7.024;2022-07-01T07:32:58;7.17;;;2.27;;
72127;SDS011;60000;51.030;7.024;2022-07-01T07:35:23;8.35;;;2.30;;
72127;SDS011;60000;51.030;7.024;2022-07-01T07:37:49;8.50;;;2.30;;
72127;SDS011;60000;51.030;7.024;2022-07-01T07:40:14;6.17;;;2.03;;
72127;SDS011;60000;51.030;7.024;2022-07-01T07:42:43;5.65;;;2.20;;
72127;SDS011;60000;51.030;7.024;2022-07-01T07:45:09;9.38;;;2.50;;
72127;SDS011;60000;51.030;7.024;2022-07-01T07:47:36;9.13;;;2.35;;
72127;SDS011;60000;51.030;7.024;2022-07-01T07:50:03;7.00;;;2.20;;
72127;SDS011;60000;51.030;7.024;2022-07-01T07:52:30;8.30;;;2.10;;
72127;SDS011;60000;51.030;7.024;2022-07-01T07:54:58;5.05;;;2.05;;
72127;SDS011;60000;51.030;7.024;2022-07-01T07:57:23;6.93;;;2.23;;
72127;SDS011;60000;51.030;7.024;2022-07-01T07:59:49;7.00;;;2.40;;
72127;SDS011;60000;51.030;7.024;2022-07-01T08:02:14;8.93;;;2.20;;
72127;SDS011;60000;51.030;7.024;2022-07-01T08:04:41;7.30;;;2.80;;
72127;SDS011;60000;51.030;7.024;2022-07-01T08:07:07;7.07;;;2.10;;
72127;SDS011;60000;51.030;7.024;2022-07-01T08:09:32;7.70;;;2.10;;
72127;SDS011;60000;51.030;7.024;2022-07-01T08:11:59;9.52;;;2.38;;
72127;SDS011;60000;51.030;7.024;2022-07-01T08:14:28;9.00;;;2.63;;
72127;SDS011;60000;51.030;7.024;2022-07-01T08:16:53;8.35;;;2.20;;
72127;SDS011;60000;51.030;7.024;2022-07-01T08:19:19;7.37;;;2.50;;
72127;SDS011;60000;51.030;7.024;2022-07-01T08:21:44;7.22;;;2.50;;
72127;SDS011;60000;51.030;7.024;2022-07-01T08:24:10;7.43;;;2.97;;
72127;SDS011;60000;51.030;7.024;2022-07-01T08:26:35;7.17;;;2.50;;
72127;SDS011;60000;51.030;7.024;2022-07-01T08:29:01;7.77;;;2.40;;
72127;SDS011;60000;51.030;7.024;2022-07-01T08:31:26;7.13;;;2.50;;
72127;SDS011;60000;51.030;7.024;2022-07-01T08:33:51;6.53;;;2.97;;
72127;SDS011;60000;51.030;7.024;2022-07-01T08:36:17;5.87;;;2.00;;
72127;SDS011;60000;51.030;7.024;2022-07-01T08:38:42;5.57;;;2.30;;
72127;SDS011;60000;51.030;7.024;2022-07-01T08:41:08;7.73;;;2.50;;
72127;SDS011;60000;51.030;7.024;2022-07-01T08:43:34;5.07;;;2.00;;
72127;SDS011;60000;51.030;7.024;2022-07-01T08:46:00;7.40;;;2.00;;
72127;SDS011;60000;51.030;7.024;2022-07-01T08:48:26;8.05;;;2.10;;
72127;SDS011;60000;51.030;7.024;2022-07-01T08:50:52;4.53;;;1.80;;
72127;SDS011;60000;51.030;7.024;2022-07-01T08:53:18;5.50;;;2.10;;
72127;SDS011;60000;51.030;7.024;2022-07-01T08:55:43;6.50;;;2.37;;
72127;SDS011;60000;51.030;7.024;2022-07-01T08:58:28;6.85;;;2.45;;
72127;SDS011;60000;51.030;7.024;2022-07-01T09:00:53;5.68;;;2.40;;
72127;SDS011;60000;51.030;7.024;2022-07-01T09:03:36;12.53;;;2.70;;
72127;SDS011;60000;51.030;7.024;2022-07-01T09:06:01;7.70;;;2.47;;
72127;SDS011;60000;51.030;7.024;2022-07-01T09:08:26;4.97;;;2.03;;
72127;SDS011;60000;51.030;7.024;2022-07-01T09:10:53;6.00;;;2.40;;
72127;SDS011;60000;51.030;7.024;2022-07-01T09:13:19;9.43;;;2.45;;
72127;SDS011;60000;51.030;7.024;2022-07-01T09:15:44;5.20;;;1.90;;
72127;SDS011;60000;51.030;7.024;2022-07-01T09:18:13;5.27;;;2.10;;
72127;SDS011;60000;51.030;7.024;2022-07-01T09:20:44;6.45;;;2.05;;
72127;SDS011;60000;51.030;7.024;2022-07-01T09:23:11;6.97;;;2.10;;
72127;SDS011;60000;51.030;7.024;2022-07-01T09:30:38;5.97;;;1.95;;
72127;SDS011;60000;51.030;7.024;2022-07-01T09:35:55;4.97;;;1.85;;
72127;SDS011;60000;51.030;7.024;2022-07-01T09:38:22;4.70;;;1.80;;
72127;SDS011;60000;51.030;7.024;2022-07-01T09:43:24;5.20;;;1.40;;
72127;SDS011;60000;51.030;7.024;2022-07-01T09:45:58;6.55;;;2.05;;
72127;SDS011;60000;51.030;7.024;2022-07-01T09:48:27;5.80;;;1.75;;
72127;SDS011;60000;51.030;7.024;2022-07-01T09:51:08;4.80;;;2.03;;
72127;SDS011;60000;51.030;7.024;2022-07-01T09:53:34;4.28;;;1.60;;
72127;SDS011;60000;51.030;7.024;2022-07-01T09:56:00;4.37;;;1.50;;
72127;SDS011;60000;51.030;7.024;2022-07-01T09:58:26;7.10;;;1.90;;
72127;SDS011;60000;51.030;7.024;2022-07-01T10:00:52;5.60;;;1.80;;
72127;SDS011;60000;51.030;7.024;2022-07-01T10:03:18;6.25;;;1.70;;
72127;SDS011;60000;51.030;7.024;2022-07-01T10:11:16;4.95;;;1.77;;
72127;SDS011;60000;51.030;7.024;2022-07-01T10:14:06;5.72;;;1.98;;
72127;SDS011;60000;51.030;7.024;2022-07-01T10:16:32;6.60;;;1.90;;
72127;SDS011;60000;51.030;7.024;2022-07-01T10:19:05;4.90;;;1.93;;
72127;SDS011;60000;51.030;7.024;2022-07-01T10:21:52;4.32;;;1.80;;
72127;SDS011;60000;51.030;7.024;2022-07-01T10:24:21;4.57;;;1.80;;
72127;SDS011;60000;51.030;7.024;2022-07-01T10:26:48;4.57;;;2.15;;
72127;SDS011;60000;51.030;7.024;2022-07-01T10:29:30;4.67;;;2.30;;
72127;SDS011;60000;51.030;7.024;2022-07-01T10:32:07;4.50;;;2.00;;
72127;SDS011;60000;51.030;7.024;2022-07-01T10:34:34;6.20;;;2.20;;
72127;SDS011;60000;51.030;7.024;2022-07-01T10:37:06;5.82;;;2.00;;
72127;SDS011;60000;51.030;7.024;2022-07-01T10:42:34;5.38;;;2.13;;
72127;SDS011;60000;51.030;7.024;2022-07-01T10:45:22;5.80;;;2.05;;
72127;SDS011;60000;51.030;7.024;2022-07-01T10:47:48;4.03;;;1.75;;
72127;SDS011;60000;51.030;7.024;2022-07-01T10:50:43;7.40;;;2.20;;
72127;SDS011;60000;51.030;7.024;2022-07-01T10:53:10;4.90;;;2.00;;
72127;SDS011;60000;51.030;7.024;2022-07-01T10:55:54;4.10;;;1.70;;
72127;SDS011;60000;51.030;7.024;2022-07-01T10:58:38;4.13;;;1.88;;
72127;SDS011;60000;51.030;7.024;2022-07-01T11:01:04;5.60;;;2.08;;
72127;SDS011;60000;51.030;7.024;2022-07-01T11:03:33;4.27;;;2.00;;
72127;SDS011;60000;51.030;7.024;2022-07-01T11:06:00;5.83;;;1.97;;
72127;SDS011;60000;51.030;7.024;2022-07-01T11:08:25;5.45;;;2.20;;
72127;SDS011;60000;51.030;7.024;2022-07-01T11:10:55;5.30;;;2.17;;
72127;SDS011;60000;51.030;7.024;2022-07-01T11:13:24;6.03;;;2.20;;
72127;SDS011;60000;51.030;7.024;2022-07-01T11:15:50;6.00;;;1.90;;
72127;SDS011;60000;51.030;7.024;2022-07-01T11:18:16;4.90;;;1.90;;
72127;SDS011;60000;51.030;7.024;2022-07-01T11:20:43;3.83;;;1.65;;
72127;SDS011;60000;51.030;7.024;2022-07-01T11:23:09;6.43;;;2.00;;
72127;SDS011;60000;51.030;7.024;2022-07-01T11:25:34;5.23;;;1.87;;
72127;SDS011;60000;51.030;7.024;2022-07-01T11:27:59;5.70;;;2.03;;
72127;SDS011;60000;51.030;7.024;2022-07-01T11:30:25;5.60;;;1.95;;
72127;SDS011;60000;51.030;7.024;2022-07-01T11:32:54;5.23;;;1.90;;
72127;SDS011;60000;51.030;7.024;2022-07-01T11:35:22;5.25;;;1.80;;
72127;SDS011;60000;51.030;7.024;2022-07-01T11:38:08;4.15;;;1.45;;
72127;SDS011;60000;51.030;7.024;2022-07-01T11:41:07;5.07;;;1.80;;
72127;SDS011;60000;51.030;7.024;2022-07-01T11:43:35;6.05;;;1.88;;
72127;SDS011;60000;51.030;7.024;2022-07-01T11:46:02;6.23;;;2.00;;
72127;SDS011;60000;51.030;7.024;2022-07-01T11:48:30;5.15;;;1.80;;
72127;SDS011;60000;51.030;7.024;2022-07-01T11:50:57;5.88;;;1.70;;
72127;SDS011;60000;51.030;7.024;2022-07-01T11:53:23;4.07;;;1.60;;
72127;SDS011;60000;51.030;7.024;2022-07-01T11:55:49;3.58;;;1.30;;
72127;SDS011;60000;51.030;7.024;2022-07-01T11:58:14;5.07;;;1.53;;
72127;SDS011;60000;51.030;7.024;2022-07-01T12:00:40;5.60;;;1.40;;
72127;SDS011;60000;51.030;7.024;2022-07-01T12:03:05;4.03;;;1.30;;
72127;SDS011;60000;51.030;7.024;2022-07-01T12:05:32;7.57;;;1.60;;
72127;SDS011;60000;51.030;7.024;2022-07-01T12:07:59;5.00;;;1.50;;
72127;SDS011;60000;51.030;7.024;2022-07-01T12:10:25;3.83;;;1.40;;
72127;SDS011;60000;51.030;7.024;2022-07-01T12:12:51;7.30;;;2.22;;
72127;SDS011;60000;51.030;7.024;2022-07-01T12:15:17;5.40;;;1.40;;
72127;SDS011;60000;51.030;7.024;2022-07-01T12:17:44;3.87;;;1.30;;
72127;SDS011;60000;51.030;7.024;2022-07-01T12:20:10;6.53;;;1.30;;
72127;SDS011;60000;51.030;7.024;2022-07-01T12:22:35;5.20;;;1.77;;
72127;SDS011;60000;51.030;7.024;2022-07-01T12:25:08;4.43;;;1.20;;
72127;SDS011;60000;51.030;7.024;2022-07-01T12:27:36;5.60;;;1.50;;
72127;SDS011;60000;51.030;7.024;2022-07-01T12:30:03;3.38;;;1.10;;
72127;SDS011;60000;51.030;7.024;2022-07-01T12:32:30;2.77;;;0.97;;
72127;SDS011;60000;51.030;7.024;2022-07-01T12:34:58;3.83;;;0.90;;
72127;SDS011;60000;51.030;7.024;2022-07-01T12:37:34;3.83;;;0.90;;
72127;SDS011;60000;51.030;7.024;2022-07-01T12:40:02;4.82;;;1.02;;
72127;SDS011;60000;51.030;7.024;2022-07-01T12:42:32;3.75;;;1.00;;
72127;SDS011;60000;51.030;7.024;2022-07-01T12:45:08;4.70;;;0.90;;
72127;SDS011;60000;51.030;7.024;2022-07-01T12:47:37;3.47;;;1.00;;
72127;SDS011;60000;51.030;7.024;2022-07-01T12:50:16;5.82;;;1.00;;
72127;SDS011;60000;51.030;7.024;2022-07-01T12:53:03;4.35;;;0.90;;
72127;SDS011;60000;51.030;7.024;2022-07-01T12:55:49;5.88;;;0.93;;
72127;SDS011;60000;51.030;7.024;2022-07-01T12:58:20;4.97;;;1.43;;
72127;SDS011;60000;51.030;7.024;2022-07-01T13:00:49;5.22;;;1.20;;
72127;SDS011;60000;51.030;7.024;2022-07-01T13:03:18;4.13;;;1.20;;
72127;SDS011;60000;51.030;7.024;2022-07-01T13:05:45;4.22;;;0.98;;
72127;SDS011;60000;51.030;7.024;2022-07-01T13:08:10;4.37;;;1.17;;
72127;SDS011;60000;51.030;7.024;2022-07-01T13:10:36;4.37;;;1.07;;
72127;SDS011;60000;51.030;7.024;2022-07-01T13:13:02;5.70;;;0.93;;
72127;SDS011;60000;51.030;7.024;2022-07-01T13:15:28;2.90;;;0.85;;
72127;SDS011;60000;51.030;7.024;2022-07-01T13:17:54;3.00;;;0.90;;
72127;SDS011;60000;51.030;7.024;2022-07-01T13:20:19;4.00;;;0.70;;
72127;SDS011;60000;51.030;7.024;2022-07-01T13:22:45;3.75;;;0.80;;
72127;SDS011;60000;51.030;7.024;2022-07-01T13:25:11;4.10;;;0.80;;
72127;SDS011;60000;51.030;7.024;2022-07-01T13:27:37;3.65;;;1.77;;
72127;SDS011;60000;51.030;7.024;2022-07-01T13:30:04;3.47;;;0.90;;
72127;SDS011;60000;51.030;7.024;2022-07-01T13:32:30;4.82;;;1.10;;
72127;SDS011;60000;51.030;7.024;2022-07-01T13:34:56;3.00;;;1.00;;
72127;SDS011;60000;51.030;7.024;2022-07-01T13:37:21;4.13;;;0.90;;
72127;SDS011;60000;51.030;7.024;2022-07-01T13:39:46;3.47;;;1.10;;
72127;SDS011;60000;51.030;7.024;2022-07-01T13:42:12;4.97;;;1.07;;
72127;SDS011;60000;51.030;7.024;2022-07-01T13:44:37;5.43;;;1.10;;
72127;SDS011;60000;51.030;7.024;2022-07-01T13:47:03;3.22;;;0.80;;
72127;SDS011;60000;51.030;7.024;2022-07-01T13:49:30;3.03;;;0.87;;
72127;SDS011;60000;51.030;7.024;2022-07-01T13:51:56;3.60;;;0.70;;
72127;SDS011;60000;51.030;7.024;2022-07-01T13:54:21;4.30;;;1.10;;
72127;SDS011;60000;51.030;7.024;2022-07-01T13:56:47;3.83;;;1.00;;
72127;SDS011;60000;51.030;7.024;2022-07-01T13:59:12;3.33;;;0.90;;
72127;SDS011;60000;51.030;7.024;2022-07-01T14:01:37;4.77;;;0.80;;
72127;SDS011;60000;51.030;7.024;2022-07-01T14:04:03;4.80;;;1.00;;
72127;SDS011;60000;51.030;7.024;2022-07-01T14:06:29;3.38;;;1.00;;
72127;SDS011;60000;51.030;7.024;2022-07-01T14:08:54;2.53;;;0.90;;
72127;SDS011;60000;51.030;7.024;2022-07-01T14:11:19;2.37;;;0.70;;
72127;SDS011;60000;51.030;7.024;2022-07-01T14:13:44;3.40;;;0.90;;
72127;SDS011;60000;51.030;7.024;2022-07-01T14:16:10;2.53;;;0.90;;
72127;SDS011;60000;51.030;7.024;2022-07-01T14:18:36;2.80;;;1.00;;
72127;SDS011;60000;51.030;7.024;2022-07-01T14:21:05;4.43;;;0.82;;
72127;SDS011;60000;51.030;7.024;2022-07-01T14:23:30;3.05;;;0.82;;
72127;SDS011;60000;51.030;7.024;2022-07-01T14:25:56;3.63;;;1.00;;
72127;SDS011;60000;51.030;7.024;2022-07-01T14:28:22;3.77;;;0.70;;
72127;SDS011;60000;51.030;7.024;2022-07-01T14:30:47;3.00;;;0.93;;
72127;SDS011;60000;51.030;7.024;2022-07-01T14:33:14;3.13;;;0.77;;
72127;SDS011;60000;51.030;7.024;2022-07-01T14:35:40;2.50;;;0.70;;
72127;SDS011;60000;51.030;7.024;2022-07-01T14:38:06;3.87;;;0.73;;
72127;SDS011;60000;51.030;7.024;2022-07-01T14:40:32;2.63;;;0.80;;
72127;SDS011;60000;51.030;7.024;2022-07-01T14:42:57;2.20;;;0.70;;
72127;SDS011;60000;51.030;7.024;2022-07-01T14:45:23;2.45;;;0.70;;
72127;SDS011;60000;51.030;7.024;2022-07-01T14:47:48;2.87;;;0.70;;
72127;SDS011;60000;51.030;7.024;2022-07-01T14:50:14;3.07;;;0.70;;
72127;SDS011;60000;51.030;7.024;2022-07-01T14:52:39;3.87;;;0.80;;
72127;SDS011;60000;51.030;7.024;2022-07-01T14:55:05;3.60;;;0.90;;
72127;SDS011;60000;51.030;7.024;2022-07-01T14:57:31;2.80;;;0.73;;
72127;SDS011;60000;51.030;7.024;2022-07-01T14:59:56;3.00;;;0.70;;
72127;SDS011;60000;51.030;7.024;2022-07-01T15:02:23;4.30;;;0.80;;
72127;SDS011;60000;51.030;7.024;2022-07-01T15:04:48;3.60;;;0.80;;
72127;SDS011;60000;51.030;7.024;2022-07-01T15:07:14;2.00;;;0.63;;